createdAt,value
2023-03-31T00:01:49.214Z,11.30
2023-03-31T00:04:34.677Z,11.40
2023-03-31T00:07:24.787Z,11.40
2023-03-31T00:13:02.420Z,11.40
2023-03-31T00:15:47.436Z,11.40
2023-03-31T00:18:33.169Z,11.30
2023-03-31T00:21:29.515Z,11.30
2023-03-31T00:24:16.226Z,11.30
2023-03-31T00:27:05.418Z,11.20
2023-03-31T00:29:53.043Z,11.20
2023-03-31T00:32:38.369Z,11.20
2023-03-31T00:35:23.689Z,11.20
2023-03-31T00:38:09.782Z,11.20
2023-03-31T00:40:54.969Z,11.20
2023-03-31T00:43:40.810Z,11.10
2023-03-31T00:46:37.689Z,11.10
2023-03-31T00:49:25.530Z,11.00
2023-03-31T00:52:30.119Z,11.10
2023-03-31T00:55:19.067Z,11.20
2023-03-31T00:58:07.247Z,11.20
2023-03-31T01:00:52.937Z,11.20
2023-03-31T01:03:39.287Z,11.20
2023-03-31T01:06:25.741Z,11.10
2023-03-31T01:09:11.249Z,11.10
2023-03-31T01:11:57.096Z,11.20
2023-03-31T01:14:42.489Z,11.20
2023-03-31T01:17:29.870Z,11.10
2023-03-31T01:20:33.469Z,11.00
2023-03-31T01:23:53.913Z,11.00
2023-03-31T01:26:57.562Z,11.00
2023-03-31T01:29:57.622Z,11.10
2023-03-31T01:33:00.882Z,11.10
2023-03-31T01:36:03.336Z,11.00
2023-03-31T01:39:13.371Z,11.10
2023-03-31T01:42:17.165Z,11.10
2023-03-31T01:45:20.203Z,11.20
2023-03-31T01:48:12.910Z,11.10
2023-03-31T01:51:05.675Z,11.20
2023-03-31T01:54:04.812Z,11.20
2023-03-31T01:56:57.992Z,11.20
2023-03-31T01:59:54.773Z,11.20
2023-03-31T02:02:48.112Z,11.20
2023-03-31T02:05:40.713Z,11.10
2023-03-31T02:08:31.181Z,11.20
2023-03-31T02:11:17.011Z,11.30
2023-03-31T02:14:04.754Z,11.30
2023-03-31T02:16:58.197Z,11.20
2023-03-31T02:19:47.153Z,11.20
2023-03-31T02:22:36.244Z,11.20
2023-03-31T02:25:26.314Z,11.20
2023-03-31T02:28:18.381Z,11.20
2023-03-31T02:31:13.030Z,11.10
2023-03-31T02:33:58.784Z,11.00
2023-03-31T02:36:47.874Z,11.00
2023-03-31T02:39:35.580Z,10.90
2023-03-31T02:42:21.226Z,10.90
2023-03-31T02:45:27.307Z,10.90
2023-03-31T02:48:32.926Z,11.00
2023-03-31T02:51:41.109Z,10.90
2023-03-31T02:54:56.952Z,10.80
2023-03-31T02:58:24.613Z,10.70
2023-03-31T03:01:33.220Z,10.80
2023-03-31T03:04:26.867Z,10.70
2023-03-31T03:07:58.180Z,10.60
2023-03-31T03:11:18.015Z,10.60
2023-03-31T03:14:24.388Z,10.50
2023-03-31T03:17:18.698Z,10.60
2023-03-31T03:20:09.458Z,10.60
2023-03-31T03:22:55.400Z,10.60
2023-03-31T03:25:40.345Z,10.60
2023-03-31T03:28:25.697Z,10.60
2023-03-31T03:31:11.265Z,10.70
2023-03-31T03:33:56.300Z,10.60
2023-03-31T03:36:41.772Z,10.60
2023-03-31T03:39:27.032Z,10.50
2023-03-31T03:42:12.447Z,10.50
2023-03-31T03:44:57.713Z,10.60
2023-03-31T03:47:43.249Z,10.60
2023-03-31T03:50:28.613Z,10.70
2023-03-31T03:53:15.207Z,10.70
2023-03-31T03:56:01.490Z,10.60
2023-03-31T03:58:46.737Z,10.50
2023-03-31T04:01:32.358Z,10.50
2023-03-31T04:04:17.958Z,10.60
2023-03-31T04:07:02.928Z,10.60
2023-03-31T04:09:48.513Z,10.60
2023-03-31T04:12:37.264Z,10.60
2023-03-31T04:15:22.590Z,10.40
2023-03-31T04:18:10.703Z,10.40
2023-03-31T04:21:05.292Z,10.60
2023-03-31T04:24:01.750Z,10.60
2023-03-31T04:26:50.587Z,10.40
2023-03-31T04:29:37.204Z,10.40
2023-03-31T04:32:23.657Z,10.40
2023-03-31T04:35:09.076Z,10.50
2023-03-31T04:37:58.815Z,10.40
2023-03-31T04:40:49.354Z,10.40
2023-03-31T04:43:34.548Z,10.40
2023-03-31T04:46:20.259Z,10.30
2023-03-31T04:49:06.220Z,10.40
2023-03-31T04:51:51.247Z,10.30
2023-03-31T04:54:36.610Z,10.30
2023-03-31T04:57:22.140Z,10.30
2023-03-31T05:00:08.121Z,10.30
2023-03-31T05:02:53.583Z,10.30
2023-03-31T05:05:38.955Z,10.30
2023-03-31T05:08:24.374Z,10.20
2023-03-31T05:11:09.975Z,10.20
2023-03-31T05:13:55.316Z,10.30
2023-03-31T05:16:41.959Z,10.30
2023-03-31T05:19:26.987Z,10.40
2023-03-31T05:22:12.403Z,10.40
2023-03-31T05:24:57.806Z,10.40
2023-03-31T05:27:43.234Z,10.40
2023-03-31T05:30:30.213Z,10.40
2023-03-31T05:33:16.845Z,10.40
2023-03-31T05:36:02.246Z,10.30
2023-03-31T05:38:47.810Z,10.30
2023-03-31T05:41:33.336Z,10.30
2023-03-31T05:44:20.705Z,10.30
2023-03-31T05:47:06.070Z,10.30
2023-03-31T05:49:51.954Z,10.30
2023-03-31T05:52:37.418Z,10.30
2023-03-31T05:55:22.827Z,10.30
2023-03-31T05:58:08.418Z,10.20
2023-03-31T06:01:06.375Z,10.30
2023-03-31T06:03:52.314Z,10.30
2023-03-31T06:06:38.057Z,10.30
2023-03-31T06:09:23.724Z,10.40
2023-03-31T06:12:09.137Z,10.40
2023-03-31T06:14:54.146Z,10.50
2023-03-31T06:17:39.701Z,10.40
2023-03-31T06:20:28.348Z,10.40
2023-03-31T06:23:13.930Z,10.40
2023-03-31T06:26:03.111Z,10.40
2023-03-31T06:28:49.371Z,10.30
2023-03-31T06:31:34.602Z,10.40
2023-03-31T06:34:21.366Z,10.50
2023-03-31T06:37:06.736Z,10.50
2023-03-31T06:39:52.162Z,10.40
2023-03-31T06:42:37.687Z,10.50
2023-03-31T06:45:23.002Z,10.50
2023-03-31T06:48:08.483Z,10.40
2023-03-31T06:50:54.819Z,10.50
2023-03-31T06:53:40.324Z,10.50
2023-03-31T06:56:27.254Z,10.40
2023-03-31T06:59:12.465Z,10.50
2023-03-31T07:01:58.043Z,10.70
2023-03-31T07:04:43.182Z,10.60
2023-03-31T07:07:32.459Z,10.70
2023-03-31T07:10:17.887Z,10.70
2023-03-31T07:13:05.523Z,10.70
2023-03-31T07:15:51.443Z,10.80
2023-03-31T07:18:41.276Z,10.70
2023-03-31T07:21:26.722Z,10.50
2023-03-31T07:24:11.964Z,10.40
2023-03-31T07:26:57.182Z,10.50
2023-03-31T07:29:42.522Z,10.60
2023-03-31T07:32:29.191Z,10.60
2023-03-31T07:35:14.636Z,10.60
2023-03-31T07:38:00.259Z,10.60
2023-03-31T07:40:49.065Z,10.60
2023-03-31T07:43:41.408Z,10.60
2023-03-31T07:46:28.285Z,10.60
2023-03-31T07:49:16.050Z,10.60
2023-03-31T07:52:01.561Z,10.40
2023-03-31T07:54:46.831Z,10.60
2023-03-31T07:57:31.981Z,10.40
2023-03-31T08:00:18.051Z,10.50
2023-03-31T08:03:03.729Z,10.30
2023-03-31T08:05:52.554Z,10.40
2023-03-31T08:08:38.501Z,10.50
2023-03-31T08:11:24.336Z,10.60
2023-03-31T08:14:09.321Z,10.60
2023-03-31T08:16:55.444Z,10.70
2023-03-31T08:19:40.610Z,10.70
2023-03-31T08:22:26.352Z,10.60
2023-03-31T08:25:11.478Z,10.60
2023-03-31T08:27:56.942Z,10.60
2023-03-31T08:30:42.289Z,10.70
2023-03-31T08:33:27.732Z,10.70
2023-03-31T08:36:13.804Z,10.60
2023-03-31T08:38:59.763Z,10.60
2023-03-31T08:41:59.873Z,10.50
2023-03-31T08:45:02.024Z,10.60
2023-03-31T08:47:51.719Z,10.50
2023-03-31T08:50:44.184Z,10.60
2023-03-31T08:53:34.704Z,10.50
2023-03-31T08:56:22.910Z,10.50
2023-03-31T08:59:17.917Z,10.60
2023-03-31T09:02:15.603Z,10.60
2023-03-31T09:05:13.218Z,10.50
2023-03-31T09:08:11.628Z,10.60
2023-03-31T09:11:04.849Z,10.60
2023-03-31T09:14:10.351Z,10.70
2023-03-31T09:17:18.362Z,10.70
2023-03-31T09:20:15.943Z,10.60
2023-03-31T09:23:25.881Z,10.60
2023-03-31T09:26:26.602Z,10.80
2023-03-31T09:29:19.297Z,10.80
2023-03-31T09:32:17.693Z,10.70
2023-03-31T09:35:17.913Z,10.70
2023-03-31T09:38:03.183Z,10.70
2023-03-31T09:40:48.702Z,10.60
2023-03-31T09:43:38.482Z,10.60
2023-03-31T09:46:34.664Z,10.60
2023-03-31T09:49:22.782Z,10.50
2023-03-31T09:52:32.885Z,10.60
2023-03-31T09:55:31.973Z,10.60
2023-03-31T09:58:25.043Z,10.60
2023-03-31T10:01:12.777Z,10.60
2023-03-31T10:03:58.444Z,10.60
2023-03-31T10:06:43.681Z,10.60
2023-03-31T10:09:32.624Z,10.60
2023-03-31T10:12:24.331Z,10.60
2023-03-31T10:15:21.607Z,10.80
2023-03-31T10:18:06.811Z,10.80
2023-03-31T10:20:52.921Z,10.80
2023-03-31T10:23:38.113Z,10.90
2023-03-31T10:26:27.976Z,10.80
2023-03-31T10:29:15.642Z,10.80
2023-03-31T10:32:29.490Z,10.90
2023-03-31T10:35:33.640Z,10.90
2023-03-31T10:38:34.348Z,11.10
2023-03-31T10:41:29.067Z,11.00
2023-03-31T10:44:38.398Z,11.00
2023-03-31T10:47:23.568Z,11.10
2023-03-31T10:50:16.253Z,11.10
2023-03-31T10:53:10.223Z,11.20
2023-03-31T10:56:09.223Z,11.00
2023-03-31T10:59:21.158Z,10.90
2023-03-31T11:02:40.001Z,10.80
2023-03-31T11:06:00.895Z,10.60
2023-03-31T11:09:04.413Z,10.50
2023-03-31T11:12:11.834Z,10.40
2023-03-31T11:15:19.418Z,10.30
2023-03-31T11:18:13.556Z,10.30
2023-03-31T11:21:24.845Z,9.90
2023-03-31T11:24:42.729Z,10.10
2023-03-31T11:27:56.301Z,10.10
2023-03-31T11:31:18.589Z,10.10
2023-03-31T11:34:22.399Z,10.00
2023-03-31T11:37:23.029Z,10.00
2023-03-31T11:40:21.577Z,10.20
2023-03-31T11:43:30.358Z,10.40
2023-03-31T11:46:21.578Z,10.60
2023-03-31T11:49:16.316Z,10.60
2023-03-31T11:52:15.328Z,10.60
2023-03-31T11:55:07.426Z,10.60
2023-03-31T11:58:16.009Z,10.70
2023-03-31T12:01:16.992Z,10.70
2023-03-31T12:04:19.903Z,10.70
2023-03-31T12:07:29.535Z,10.60
2023-03-31T12:10:29.407Z,10.50
2023-03-31T12:13:36.180Z,10.60
2023-03-31T12:16:43.755Z,10.60
2023-03-31T12:19:35.800Z,10.50
2023-03-31T12:22:32.621Z,10.40
2023-03-31T12:25:26.634Z,10.50
2023-03-31T12:28:12.497Z,10.50
2023-03-31T12:30:59.546Z,10.40
2023-03-31T12:33:50.601Z,10.40
2023-03-31T12:37:06.604Z,10.80
2023-03-31T12:40:16.482Z,10.50
2023-03-31T12:43:16.992Z,10.40
2023-03-31T12:46:33.780Z,10.50
2023-03-31T12:49:35.714Z,10.60
2023-03-31T12:52:41.328Z,10.70
2023-03-31T12:55:40.948Z,10.80
2023-03-31T12:58:34.023Z,11.00
2023-03-31T13:01:22.749Z,11.00
2023-03-31T13:04:28.652Z,11.30
2023-03-31T13:07:38.583Z,11.60
2023-03-31T13:10:30.625Z,11.70
2023-03-31T13:13:17.596Z,11.90
2023-03-31T13:16:03.384Z,11.80
2023-03-31T13:18:52.922Z,11.80
2023-03-31T13:22:01.255Z,11.90
2023-03-31T13:24:46.611Z,11.80
2023-03-31T13:27:35.272Z,11.80
2023-03-31T13:30:39.110Z,11.80
2023-03-31T13:33:26.959Z,11.90
2023-03-31T13:36:43.101Z,12.00
2023-03-31T13:39:45.750Z,12.30
2023-03-31T13:43:16.178Z,12.40
2023-03-31T13:46:20.465Z,12.50
2023-03-31T13:49:46.323Z,12.40
2023-03-31T13:52:49.727Z,12.20
2023-03-31T13:55:41.204Z,12.00
2023-03-31T13:58:48.324Z,11.80
2023-03-31T14:01:56.321Z,11.70
2023-03-31T14:04:56.662Z,11.90
2023-03-31T14:07:49.780Z,12.00
2023-03-31T14:10:37.193Z,12.10
2023-03-31T14:13:25.309Z,12.20
2023-03-31T14:16:12.346Z,12.40
2023-03-31T14:19:35.819Z,12.50
2023-03-31T14:22:32.242Z,12.40
2023-03-31T14:25:40.816Z,12.50
2023-03-31T14:28:58.296Z,12.50
2023-03-31T14:32:07.112Z,12.60
2023-03-31T14:35:23.674Z,12.40
2023-03-31T14:38:19.043Z,12.20
2023-03-31T14:41:04.719Z,12.40
2023-03-31T14:43:52.283Z,12.70
2023-03-31T14:46:38.927Z,12.80
2023-03-31T14:49:37.484Z,13.10
2023-03-31T14:52:25.900Z,13.20
2023-03-31T14:55:15.770Z,13.20
2023-03-31T14:58:02.406Z,13.10
2023-03-31T15:00:48.254Z,13.00
2023-03-31T15:03:41.587Z,13.00
2023-03-31T15:06:27.464Z,12.90
2023-03-31T15:09:28.283Z,12.60
2023-03-31T15:12:16.695Z,12.50
2023-03-31T15:15:06.834Z,12.50
2023-03-31T15:17:52.634Z,12.60
2023-03-31T15:20:41.570Z,12.70
2023-03-31T15:23:28.393Z,13.00
2023-03-31T15:26:22.604Z,12.90
2023-03-31T15:29:18.280Z,13.00
2023-03-31T15:32:06.856Z,13.00
2023-03-31T15:34:52.656Z,13.00
2023-03-31T15:37:41.522Z,12.70
2023-03-31T15:40:39.697Z,12.60
2023-03-31T15:43:43.225Z,12.50
2023-03-31T15:46:43.673Z,12.50
2023-03-31T15:49:29.980Z,12.30
2023-03-31T15:52:34.114Z,12.30
2023-03-31T15:55:40.657Z,12.30
2023-03-31T15:58:47.073Z,12.30
2023-03-31T16:01:44.060Z,12.30
2023-03-31T16:04:32.065Z,12.40
2023-03-31T16:07:23.626Z,12.50
2023-03-31T16:10:21.597Z,12.60
2023-03-31T16:13:10.581Z,12.60
2023-03-31T16:15:56.628Z,12.70
2023-03-31T16:18:47.488Z,12.80
2023-03-31T16:21:47.468Z,12.70
2023-03-31T16:24:35.294Z,12.70
2023-03-31T16:27:22.068Z,12.70
2023-03-31T16:30:11.687Z,12.70
2023-03-31T16:33:09.342Z,12.50
2023-03-31T16:35:56.359Z,12.50
2023-03-31T16:38:41.860Z,12.50
2023-03-31T16:41:31.411Z,12.50
2023-03-31T16:44:16.761Z,12.40
2023-03-31T16:47:02.327Z,12.30
2023-03-31T16:49:47.561Z,12.00
2023-03-31T16:52:33.127Z,11.90
2023-03-31T16:55:18.480Z,11.70
2023-03-31T16:58:04.086Z,11.70
2023-03-31T17:00:49.356Z,11.80
2023-03-31T17:03:36.730Z,11.80
2023-03-31T17:06:21.984Z,11.90
2023-03-31T17:09:07.421Z,11.90
2023-03-31T17:11:52.670Z,11.90
2023-03-31T17:14:38.109Z,11.90
2023-03-31T17:17:23.608Z,12.00
2023-03-31T17:20:09.982Z,12.00
2023-03-31T17:22:55.117Z,12.10
2023-03-31T17:25:47.931Z,12.20
2023-03-31T17:28:33.631Z,12.20
2023-03-31T17:31:21.496Z,12.20
2023-03-31T17:34:06.833Z,12.30
2023-03-31T17:36:54.687Z,12.30
2023-03-31T17:39:39.843Z,12.20
2023-03-31T17:42:25.833Z,12.30
2023-03-31T17:45:12.144Z,12.20
2023-03-31T17:47:58.282Z,12.10
2023-03-31T17:50:43.482Z,12.10
2023-03-31T17:53:28.964Z,12.10
2023-03-31T17:56:16.437Z,11.90
2023-03-31T17:59:01.741Z,11.80
2023-03-31T18:01:47.223Z,11.70
2023-03-31T18:04:32.526Z,11.60
2023-03-31T18:07:18.481Z,11.60
2023-03-31T18:10:07.796Z,11.70
2023-03-31T18:12:54.895Z,11.70
2023-03-31T18:15:46.756Z,11.70
2023-03-31T18:18:32.581Z,11.50
2023-03-31T18:21:18.012Z,11.50
2023-03-31T18:24:03.680Z,11.50
2023-03-31T18:26:49.122Z,11.40
2023-03-31T18:29:34.383Z,11.20
2023-03-31T18:32:21.302Z,11.20
2023-03-31T18:35:07.349Z,11.30
2023-03-31T18:37:53.460Z,11.30
2023-03-31T18:40:38.602Z,11.30
2023-03-31T18:43:25.957Z,11.30
2023-03-31T18:46:11.775Z,11.30
2023-03-31T18:48:56.931Z,11.30
2023-03-31T18:51:42.257Z,11.10
2023-03-31T18:54:27.564Z,11.20
2023-03-31T18:57:13.201Z,11.20
2023-03-31T18:59:58.475Z,11.40
2023-03-31T19:02:44.075Z,11.40
2023-03-31T19:05:30.430Z,11.50
2023-03-31T19:08:16.275Z,11.50
2023-03-31T19:11:16.116Z,11.50
2023-03-31T19:14:01.459Z,11.50
2023-03-31T19:16:46.768Z,11.60
2023-03-31T19:19:32.040Z,11.60
2023-03-31T19:22:17.596Z,11.60
2023-03-31T19:25:03.484Z,11.60
2023-03-31T19:27:49.357Z,11.60
2023-03-31T19:30:35.062Z,11.60
2023-03-31T19:33:20.311Z,11.70
2023-03-31T19:36:05.954Z,11.60
2023-03-31T19:38:51.933Z,11.60
2023-03-31T19:41:37.284Z,11.60
2023-03-31T19:44:22.867Z,11.60
2023-03-31T19:47:07.981Z,11.50
2023-03-31T19:49:53.669Z,11.50
2023-03-31T19:52:38.868Z,11.40
2023-03-31T19:55:24.161Z,11.40
2023-03-31T19:58:10.926Z,11.40
2023-03-31T20:00:57.582Z,11.40
2023-03-31T20:03:43.864Z,11.40
2023-03-31T20:06:30.694Z,11.40
2023-03-31T20:09:15.860Z,11.40
2023-03-31T20:12:01.450Z,11.40
2023-03-31T20:14:47.539Z,11.40
2023-03-31T20:17:32.919Z,11.30
2023-03-31T20:20:18.582Z,11.20
2023-03-31T20:23:03.956Z,11.20
2023-03-31T20:25:51.133Z,11.10
2023-03-31T20:28:37.982Z,11.10
2023-03-31T20:31:30.278Z,11.10
2023-03-31T20:34:17.898Z,11.00
2023-03-31T20:37:05.771Z,11.00
2023-03-31T20:39:51.302Z,10.90
2023-03-31T20:42:36.476Z,11.00
2023-03-31T20:45:22.163Z,10.90
2023-03-31T20:48:07.776Z,10.70
2023-03-31T20:50:53.168Z,10.70
2023-03-31T20:53:44.450Z,10.60
2023-03-31T20:56:33.936Z,10.60
2023-03-31T20:59:19.417Z,10.60
2023-03-31T21:02:04.823Z,10.50
2023-03-31T21:04:51.275Z,10.50
2023-03-31T21:07:36.921Z,10.50
2023-03-31T21:10:24.349Z,10.60
2023-03-31T21:13:11.410Z,10.50
2023-03-31T21:15:58.756Z,10.50
2023-03-31T21:18:43.925Z,10.50
2023-03-31T21:21:30.293Z,10.50
2023-03-31T21:24:15.898Z,10.50
2023-03-31T21:27:00.999Z,10.50
2023-03-31T21:29:46.267Z,10.40
2023-03-31T21:32:31.620Z,10.40
2023-03-31T21:35:17.831Z,10.50
2023-03-31T21:38:03.035Z,10.40
2023-03-31T21:40:50.083Z,10.50
2023-03-31T21:43:35.869Z,10.40
2023-03-31T21:46:27.303Z,10.50
2023-03-31T21:49:12.733Z,10.30
2023-03-31T21:51:58.992Z,10.20
2023-03-31T21:54:44.855Z,10.10
2023-03-31T21:57:30.143Z,10.10
2023-03-31T22:00:15.708Z,10.10
2023-03-31T22:05:49.167Z,10.00
2023-03-31T22:08:36.689Z,10.10
2023-03-31T22:11:24.012Z,10.00
2023-03-31T22:14:09.225Z,10.00
2023-03-31T22:16:54.723Z,9.90
2023-03-31T22:19:40.386Z,9.90
2023-03-31T22:22:25.549Z,9.90
2023-03-31T22:25:11.105Z,10.10
2023-03-31T22:27:56.477Z,10.10
2023-03-31T22:30:42.718Z,10.10
2023-03-31T22:33:27.637Z,10.10
2023-03-31T22:36:13.378Z,10.20
2023-03-31T22:38:58.498Z,10.20
2023-03-31T22:41:44.852Z,10.20
2023-03-31T22:44:29.948Z,10.10
2023-03-31T22:47:15.946Z,10.20
2023-03-31T22:50:01.129Z,10.00
2023-03-31T22:52:46.432Z,10.10
2023-03-31T22:55:31.912Z,10.10
2023-03-31T22:58:17.132Z,10.00
2023-03-31T23:01:02.891Z,9.90
2023-03-31T23:03:48.450Z,10.10
2023-03-31T23:06:36.041Z,10.20
2023-03-31T23:09:23.698Z,10.20
2023-03-31T23:12:09.252Z,10.10
2023-03-31T23:14:54.604Z,10.20
2023-03-31T23:17:40.419Z,10.10
2023-03-31T23:20:25.668Z,10.00
2023-03-31T23:23:11.325Z,10.00
2023-03-31T23:26:00.839Z,10.10
2023-03-31T23:28:49.291Z,10.10
2023-03-31T23:31:34.422Z,10.10
2023-03-31T23:34:19.610Z,10.10
2023-03-31T23:37:04.842Z,10.00
2023-03-31T23:39:50.713Z,10.00
2023-03-31T23:42:36.458Z,10.00
2023-03-31T23:45:21.746Z,10.10
2023-03-31T23:48:06.987Z,10.00
2023-03-31T23:50:52.244Z,10.00
2023-03-31T23:53:37.922Z,10.10
2023-03-31T23:56:23.421Z,10.00
2023-03-31T23:59:08.880Z,10.00
